Time;durP1;ratioP1;P1;durP2;ratioP2;P2;SDS_P1;SDS_P2;PMS_P1;PMS_P2;Temp;Humidity;BMP_temperature;BMP_pressure;BME280_temperature;BME280_humidity;BME280_pressure;Samples;Min_cycle;Max_cycle;Signal;HPM_P1;HPM_P2
2023/12/31 00:01:44;;;;;;;2.23;2.13;;;;;;;8.93;82.73;100340.78;5037022;28;20294;-70
2023/12/31 00:04:10;;;;;;;3.03;3.03;;;;;;;8.87;83.02;100335.25;5036464;28;20250;-70
2023/12/31 00:06:37;;;;;;;2.67;2.60;;;;;;;8.83;83.04;100331.16;5036396;28;20694;-70
2023/12/31 00:09:03;;;;;;;3.40;3.30;;;;;;;8.77;83.38;100326.44;5036514;28;20225;-70
2023/12/31 00:11:30;;;;;;;2.83;2.67;;;;;;;8.66;83.98;100315.00;5036347;28;20184;-69
2023/12/31 00:13:56;;;;;;;2.13;2.13;;;;;;;8.64;84.03;100324.16;5036249;28;20195;-69
2023/12/31 00:16:23;;;;;;;4.47;2.70;;;;;;;8.59;84.38;100318.41;5036239;28;20602;-69
2023/12/31 00:18:49;;;;;;;2.60;2.60;;;;;;;8.61;84.15;100306.59;5036105;28;20219;-69
2023/12/31 00:21:16;;;;;;;2.10;2.07;;;;;;;8.60;84.27;100304.13;5036268;28;20573;-70
2023/12/31 00:23:42;;;;;;;1.80;1.80;;;;;;;8.58;84.54;100298.91;5036625;28;20188;-70
2023/12/31 00:26:09;;;;;;;1.87;1.87;;;;;;;8.60;84.32;100301.44;5036319;28;20191;-70
2023/12/31 00:28:37;;;;;;;2.17;2.07;;;;;;;8.55;84.44;100304.56;5034736;28;20731;-70
2023/12/31 00:31:04;;;;;;;1.90;1.90;;;;;;;8.54;84.64;100288.72;5034647;28;20216;-70
2023/12/31 00:33:31;;;;;;;2.50;2.37;;;;;;;8.57;84.44;100291.09;5035902;28;20207;-70
2023/12/31 00:35:58;;;;;;;1.70;1.70;;;;;;;8.54;84.71;100286.03;5034594;28;20196;-70
2023/12/31 00:38:25;;;;;;;1.80;1.70;;;;;;;8.55;84.93;100279.75;5035858;28;20206;-70
2023/12/31 00:40:53;;;;;;;4.70;2.07;;;;;;;8.56;84.95;100279.59;5035720;28;20223;-70
2023/12/31 00:43:19;;;;;;;2.20;2.20;;;;;;;8.57;84.88;100277.78;5036184;28;20534;-69
2023/12/31 00:45:46;;;;;;;2.57;2.37;;;;;;;8.57;84.92;100261.78;5035720;28;20262;-69
2023/12/31 00:48:12;;;;;;;1.87;1.70;;;;;;;8.58;84.51;100256.28;5035304;28;20195;-69
2023/12/31 00:50:39;;;;;;;1.87;1.87;;;;;;;8.63;84.70;100248.69;5034298;28;20592;-69
2023/12/31 00:53:05;;;;;;;1.93;1.93;;;;;;;8.68;84.46;100237.59;5036055;28;20246;-69
2023/12/31 00:55:32;;;;;;;2.40;2.30;;;;;;;8.70;84.14;100241.75;5035782;28;20208;-69
2023/12/31 00:57:58;;;;;;;1.80;1.80;;;;;;;8.63;84.71;100237.19;5034203;28;20195;-69
2023/12/31 01:00:25;;;;;;;2.43;2.33;;;;;;;8.69;84.42;100247.25;5035336;28;20208;-70
2023/12/31 01:02:51;;;;;;;2.47;2.37;;;;;;;8.65;84.50;100240.56;5034002;28;20227;-70
2023/12/31 01:05:18;;;;;;;2.20;2.20;;;;;;;8.67;84.73;100235.91;5035347;28;20196;-70
2023/12/31 01:07:44;;;;;;;2.40;2.40;;;;;;;8.61;84.71;100218.69;5034051;28;20223;-70
2023/12/31 01:10:11;;;;;;;2.60;2.40;;;;;;;8.67;84.69;100211.91;5033911;28;20216;-70
2023/12/31 01:12:38;;;;;;;2.43;2.33;;;;;;;8.63;84.56;100208.72;5035248;28;20177;-70
2023/12/31 01:15:05;;;;;;;2.50;2.50;;;;;;;8.57;85.00;100201.31;5035128;28;20188;-70
2023/12/31 01:17:31;;;;;;;3.03;3.00;;;;;;;8.57;85.24;100204.00;5035064;28;20195;-70
2023/12/31 01:19:57;;;;;;;4.07;2.63;;;;;;;8.62;84.96;100212.38;5034967;28;20204;-70
2023/12/31 01:22:24;;;;;;;3.10;3.00;;;;;;;8.64;84.82;100196.25;5035228;28;20208;-69
2023/12/31 01:24:50;;;;;;;2.90;2.60;;;;;;;8.62;84.90;100190.22;5035495;28;20211;-69
2023/12/31 01:27:17;;;;;;;4.60;2.83;;;;;;;8.63;84.77;100184.75;5034950;28;20190;-69
2023/12/31 01:29:43;;;;;;;2.97;2.97;;;;;;;8.61;84.98;100191.22;5034778;28;20212;-69
2023/12/31 01:32:10;;;;;;;3.60;3.30;;;;;;;8.56;85.19;100178.34;5034841;28;20203;-69
2023/12/31 01:34:36;;;;;;;2.60;2.60;;;;;;;8.62;84.78;100182.22;5034733;28;20191;-69
2023/12/31 01:37:03;;;;;;;3.80;3.50;;;;;;;8.63;84.89;100175.91;5034757;28;20199;-69
2023/12/31 01:39:30;;;;;;;3.37;3.30;;;;;;;8.60;84.91;100171.72;5035042;28;20235;-69
2023/12/31 01:41:56;;;;;;;3.23;2.80;;;;;;;8.59;84.75;100162.06;5033336;28;20622;-69
2023/12/31 01:44:23;;;;;;;3.63;3.63;;;;;;;8.56;84.75;100161.53;5034844;28;20551;-69
2023/12/31 01:46:49;;;;;;;4.37;4.07;;;;;;;8.61;84.37;100154.72;5034842;28;20219;-69
2023/12/31 01:49:16;;;;;;;3.13;3.13;;;;;;;8.65;84.28;100157.97;5034429;28;20211;-70
2023/12/31 01:51:42;;;;;;;2.93;2.83;;;;;;;8.66;83.93;100165.78;5034728;28;20332;-69
2023/12/31 01:54:09;;;;;;;3.13;3.03;;;;;;;8.65;83.73;100153.47;5034939;28;20184;-69
2023/12/31 01:56:38;;;;;;;2.97;2.97;;;;;;;8.68;82.96;100155.81;5033109;28;20191;-69
2023/12/31 01:59:06;;;;;;;3.17;3.10;;;;;;;8.71;83.06;100154.66;5032608;28;20201;-70
2023/12/31 02:01:35;;;;;;;3.10;3.00;;;;;;;8.74;83.01;100149.03;5032571;28;20575;-70
2023/12/31 02:04:02;;;;;;;2.90;2.90;;;;;;;8.77;82.31;100148.72;5033510;28;20250;-69
2023/12/31 02:06:28;;;;;;;3.07;3.00;;;;;;;8.79;81.96;100151.22;5033721;28;20196;-69
2023/12/31 02:08:55;;;;;;;2.80;2.80;;;;;;;8.77;81.83;100129.22;5032841;28;20196;-69
2023/12/31 02:11:22;;;;;;;2.83;2.70;;;;;;;8.84;80.58;100130.28;5032724;28;20695;-70
2023/12/31 02:13:48;;;;;;;2.83;2.50;;;;;;;8.88;79.50;100127.16;5032768;28;20199;-70
2023/12/31 02:16:16;;;;;;;2.33;2.33;;;;;;;8.96;78.88;100118.38;5034277;28;20192;-69
2023/12/31 02:18:44;;;;;;;2.50;2.37;;;;;;;9.01;78.06;100118.75;5032622;28;20196;-69
2023/12/31 02:21:13;;;;;;;2.80;2.60;;;;;;;9.22;77.15;100107.69;5033871;28;20553;-70
2023/12/31 02:23:40;;;;;;;2.43;2.43;;;;;;;9.18;76.84;100100.03;5032477;28;20711;-69
2023/12/31 02:26:09;;;;;;;2.30;2.30;;;;;;;9.18;76.48;100086.69;5033780;28;20310;-69
2023/12/31 02:28:36;;;;;;;2.73;2.70;;;;;;;9.23;76.67;100090.72;5033764;28;20195;-69
2023/12/31 02:31:03;;;;;;;5.63;2.73;;;;;;;9.20;76.45;100097.22;5033634;28;20232;-69
2023/12/31 02:33:30;;;;;;;2.73;2.63;;;;;;;9.35;75.56;100084.09;5033949;28;20237;-69
2023/12/31 02:35:56;;;;;;;2.40;2.30;;;;;;;9.34;75.55;100082.41;5033929;28;20188;-69
2023/12/31 02:38:23;;;;;;;2.77;2.60;;;;;;;9.33;75.51;100068.28;5034186;28;20655;-69
2023/12/31 02:40:49;;;;;;;2.40;2.40;;;;;;;9.28;75.95;100070.56;5033528;28;20555;-70
2023/12/31 02:43:16;;;;;;;2.40;2.20;;;;;;;9.25;76.13;100062.88;5033713;28;20203;-70
2023/12/31 02:45:42;;;;;;;2.30;2.30;;;;;;;9.21;76.14;100058.84;5032230;28;20198;-69
2023/12/31 02:48:09;;;;;;;2.70;2.60;;;;;;;9.19;76.27;100044.84;5033447;28;20191;-69
2023/12/31 02:50:35;;;;;;;2.20;2.20;;;;;;;9.24;75.88;100039.88;5033416;28;20204;-69
2023/12/31 02:53:04;;;;;;;2.13;2.13;;;;;;;9.13;75.99;100030.31;5033959;28;20194;-69
2023/12/31 02:55:31;;;;;;;2.07;2.07;;;;;;;9.16;76.07;100022.00;5033657;28;20615;-69
2023/12/31 02:57:57;;;;;;;2.47;2.37;;;;;;;9.11;76.02;100015.50;5033334;28;20219;-69
2023/12/31 03:00:24;;;;;;;2.93;2.60;;;;;;;9.06;76.20;100015.97;5033276;28;20207;-69
2023/12/31 03:02:50;;;;;;;2.77;2.77;;;;;;;9.06;75.98;100020.47;5033178;28;20218;-69
2023/12/31 03:05:17;;;;;;;2.30;2.20;;;;;;;9.09;76.08;100007.63;5031999;28;20196;-69
2023/12/31 03:07:43;;;;;;;2.40;2.40;;;;;;;9.02;76.36;100003.94;5033206;28;20188;-69
2023/12/31 03:10:10;;;;;;;2.30;2.30;;;;;;;9.03;76.47;99997.63;5033414;28;20212;-69
2023/12/31 03:12:37;;;;;;;3.07;2.93;;;;;;;8.96;77.00;99996.56;5033338;28;20190;-69
2023/12/31 03:15:04;;;;;;;2.70;2.63;;;;;;;8.96;77.42;100001.06;5033130;28;20191;-69
2023/12/31 03:17:30;;;;;;;2.63;2.43;;;;;;;8.90;77.63;99991.91;5033003;28;20210;-69
2023/12/31 03:19:57;;;;;;;3.10;3.10;;;;;;;8.92;77.89;99973.06;5033010;28;20695;-70
2023/12/31 03:22:24;;;;;;;3.17;3.07;;;;;;;8.93;77.70;99975.56;5031745;28;20211;-69
2023/12/31 03:25:07;;;;;;;2.60;2.53;;;;;;;8.99;77.88;99979.44;5033343;28;20182;-69
2023/12/31 03:27:33;;;;;;;2.70;2.70;;;;;;;9.02;78.04;99974.63;5031782;28;20287;-69
2023/12/31 03:30:00;;;;;;;4.43;3.00;;;;;;;9.00;78.06;99973.09;5032905;28;20707;-70
2023/12/31 03:32:26;;;;;;;2.87;2.87;;;;;;;8.99;78.32;99974.13;5032968;28;20180;-70
2023/12/31 03:34:53;;;;;;;2.93;2.83;;;;;;;8.98;78.40;99965.28;5031642;28;20203;-70
2023/12/31 03:37:20;;;;;;;2.60;2.60;;;;;;;8.97;78.59;99962.75;5031674;28;20200;-70
2023/12/31 03:39:47;;;;;;;2.87;2.87;;;;;;;8.98;78.44;99965.28;5031563;28;20266;-70
2023/12/31 03:42:13;;;;;;;2.73;2.63;;;;;;;8.93;78.61;99964.91;5033079;28;20199;-69
2023/12/31 03:44:40;;;;;;;3.40;3.40;;;;;;;8.92;78.75;99955.25;5032865;28;20196;-69
2023/12/31 03:47:07;;;;;;;3.30;3.30;;;;;;;8.95;78.72;99948.78;5032895;28;20199;-69
2023/12/31 03:49:33;;;;;;;2.70;2.70;;;;;;;8.96;78.74;99940.59;5032763;28;20223;-69
2023/12/31 03:52:00;;;;;;;3.63;3.43;;;;;;;8.96;78.85;99942.41;5033072;28;20180;-69
2023/12/31 03:54:26;;;;;;;3.47;3.23;;;;;;;8.96;78.79;99932.59;5031491;28;20198;-69
2023/12/31 03:56:53;;;;;;;3.60;3.30;;;;;;;8.94;79.35;99931.09;5032743;28;20184;-69
2023/12/31 03:59:19;;;;;;;2.87;2.87;;;;;;;8.99;78.72;99928.78;5032904;28;20192;-70
2023/12/31 04:01:46;;;;;;;3.17;3.17;;;;;;;8.96;78.89;99916.59;5032721;28;20664;-69
2023/12/31 04:04:14;;;;;;;3.30;3.20;;;;;;;8.96;78.68;99915.75;5032639;28;20295;-69
2023/12/31 04:06:44;;;;;;;3.43;3.43;;;;;;;8.93;79.00;99908.94;5031408;28;20199;-69
2023/12/31 04:09:11;;;;;;;3.67;3.57;;;;;;;8.90;79.00;99895.94;5032815;28;20191;-70
2023/12/31 04:11:38;;;;;;;4.10;3.90;;;;;;;8.95;78.83;99895.47;5031333;28;20200;-69
2023/12/31 04:14:04;;;;;;;3.50;3.50;;;;;;;8.98;78.83;99885.31;5032828;28;20279;-69
2023/12/31 04:16:31;;;;;;;3.87;3.60;;;;;;;8.91;78.76;99876.25;5033031;28;20212;-69
2023/12/31 04:18:58;;;;;;;3.40;3.27;;;;;;;8.94;78.83;99878.63;5032456;28;20188;-69
2023/12/31 04:21:24;;;;;;;4.37;4.07;;;;;;;8.94;78.98;99864.47;5032441;28;20705;-69
2023/12/31 04:23:51;;;;;;;4.23;3.93;;;;;;;8.94;78.64;99853.78;5034514;28;20207;-69
2023/12/31 04:26:18;;;;;;;3.60;3.60;;;;;;;8.92;78.32;99853.94;5036579;28;20198;-69
2023/12/31 04:28:44;;;;;;;4.03;3.83;;;;;;;8.96;78.60;99846.44;5036011;28;20540;-69
2023/12/31 04:31:11;;;;;;;3.57;3.57;;;;;;;8.91;78.65;99838.13;5036178;28;20212;-69
2023/12/31 04:33:38;;;;;;;3.67;3.47;;;;;;;8.93;78.62;99831.63;5035952;28;20230;-69
2023/12/31 04:36:05;;;;;;;3.37;3.37;;;;;;;8.95;78.37;99826.16;5036184;28;20180;-70
2023/12/31 04:38:32;;;;;;;3.80;3.53;;;;;;;8.94;78.43;99817.31;5034567;28;20203;-70
2023/12/31 04:40:59;;;;;;;3.37;3.37;;;;;;;9.04;78.04;99815.31;5035786;28;20255;-70
2023/12/31 04:43:25;;;;;;;2.67;2.67;;;;;;;9.04;78.00;99804.66;5034488;28;20211;-70
2023/12/31 04:45:52;;;;;;;2.60;2.60;;;;;;;9.06;77.93;99801.84;5035983;28;20561;-70
2023/12/31 04:48:19;;;;;;;3.23;3.23;;;;;;;9.01;78.13;99791.66;5034422;28;20211;-70
2023/12/31 04:50:45;;;;;;;3.17;3.17;;;;;;;8.98;78.19;99791.16;5034311;28;20216;-69
2023/12/31 04:53:12;;;;;;;3.23;3.23;;;;;;;9.07;77.61;99788.34;5035843;28;20199;-69
2023/12/31 04:55:38;;;;;;;3.10;3.10;;;;;;;9.03;77.67;99787.00;5035536;28;20196;-69
2023/12/31 04:58:05;;;;;;;3.13;3.13;;;;;;;9.09;77.49;99786.34;5034227;28;20286;-69
2023/12/31 05:00:32;;;;;;;3.20;3.10;;;;;;;9.15;77.35;99777.69;5035360;28;20216;-70
2023/12/31 05:02:58;;;;;;;3.47;3.37;;;;;;;9.10;77.14;99772.00;5035316;28;20234;-70
2023/12/31 05:05:26;;;;;;;3.30;3.20;;;;;;;9.09;77.27;99759.66;5035325;28;20242;-70
2023/12/31 05:07:52;;;;;;;4.33;3.03;;;;;;;9.11;76.97;99763.03;5035568;28;20188;-70
2023/12/31 05:10:20;;;;;;;4.17;3.10;;;;;;;9.18;77.06;99757.84;5035195;28;20207;-70
2023/12/31 05:12:46;;;;;;;3.13;3.03;;;;;;;9.10;77.25;99744.50;5035748;28;20191;-70
2023/12/31 05:15:13;;;;;;;2.70;2.70;;;;;;;9.07;77.55;99751.03;5035144;28;20192;-70
2023/12/31 05:17:39;;;;;;;2.60;2.60;;;;;;;9.06;77.34;99741.34;5035169;28;20192;-70
2023/12/31 05:20:07;;;;;;;3.60;3.30;;;;;;;9.09;77.16;99742.84;5035034;28;20621;-70
2023/12/31 05:22:34;;;;;;;3.20;3.00;;;;;;;9.13;76.85;99733.50;5035241;28;20191;-70
2023/12/31 05:25:00;;;;;;;3.43;3.30;;;;;;;9.15;76.90;99728.84;5035259;28;20187;-70
2023/12/31 05:27:27;;;;;;;2.63;2.63;;;;;;;9.16;76.75;99725.19;5034949;28;20188;-70
2023/12/31 05:29:53;;;;;;;3.30;3.20;;;;;;;9.10;77.00;99712.50;5034831;28;20211;-70
2023/12/31 05:32:20;;;;;;;3.20;3.00;;;;;;;9.07;76.92;99704.84;5034828;28;20192;-69
2023/12/31 05:34:46;;;;;;;2.60;2.50;;;;;;;9.11;76.69;99717.69;5033695;28;20226;-69
2023/12/31 05:37:13;;;;;;;3.07;2.97;;;;;;;9.06;76.83;99712.03;5034785;28;20279;-69
2023/12/31 05:39:39;;;;;;;2.40;2.30;;;;;;;9.05;76.72;99710.34;5034606;28;20208;-69
2023/12/31 05:42:06;;;;;;;2.90;2.90;;;;;;;9.11;76.60;99701.69;5034663;28;20571;-69
2023/12/31 05:44:32;;;;;;;3.47;3.00;;;;;;;9.12;76.20;99705.19;5034799;28;20215;-69
2023/12/31 05:46:59;;;;;;;3.07;2.97;;;;;;;9.12;76.32;99691.88;5034576;28;20218;-69
2023/12/31 05:49:25;;;;;;;3.37;3.27;;;;;;;9.07;76.42;99694.19;5034752;28;20606;-70
2023/12/31 05:51:52;;;;;;;2.97;2.70;;;;;;;9.07;76.30;99681.69;5034461;28;20188;-69
2023/12/31 05:54:18;;;;;;;3.27;3.27;;;;;;;9.07;76.18;99687.03;5034421;28;20238;-69
2023/12/31 05:56:45;;;;;;;2.60;2.60;;;;;;;9.06;76.61;99671.19;5034409;28;20614;-69
2023/12/31 05:59:11;;;;;;;2.80;2.47;;;;;;;9.09;76.26;99679.69;5034476;28;20690;-69
2023/12/31 06:01:38;;;;;;;3.20;3.00;;;;;;;9.09;76.14;99679.69;5034515;28;20555;-69
2023/12/31 06:04:05;;;;;;;2.70;2.70;;;;;;;9.09;76.19;99677.03;5034122;28;20734;-69
2023/12/31 06:06:35;;;;;;;3.47;3.37;;;;;;;9.11;76.24;99671.53;5034144;28;20682;-69
2023/12/31 06:09:02;;;;;;;3.10;3.07;;;;;;;9.20;75.62;99661.69;5034454;28;20587;-70
2023/12/31 06:11:28;;;;;;;3.07;3.07;;;;;;;9.23;75.64;99654.19;5034432;28;20191;-69
2023/12/31 06:13:55;;;;;;;5.30;3.37;;;;;;;9.23;75.58;99651.50;5034032;28;20182;-69
2023/12/31 06:16:21;;;;;;;2.63;2.63;;;;;;;9.28;75.06;99657.19;5034522;28;20200;-69
2023/12/31 06:18:48;;;;;;;3.23;3.13;;;;;;;9.27;75.08;99647.50;5033889;28;20672;-69
2023/12/31 06:21:14;;;;;;;2.63;2.53;;;;;;;9.29;74.89;99640.19;5033871;28;20211;-70
2023/12/31 06:23:41;;;;;;;3.27;3.00;;;;;;;9.30;74.70;99641.81;5033809;28;20211;-70
2023/12/31 06:26:07;;;;;;;2.63;2.53;;;;;;;9.39;74.47;99631.97;5034375;28;20196;-70
2023/12/31 06:28:34;;;;;;;3.40;3.20;;;;;;;9.40;74.51;99617.63;5033804;28;20192;-70
2023/12/31 06:31:01;;;;;;;2.97;2.87;;;;;;;9.33;74.95;99624.66;5033698;28;20223;-70
2023/12/31 06:33:28;;;;;;;3.03;2.97;;;;;;;9.31;74.94;99629.31;5033956;28;20235;-70
2023/12/31 06:35:54;;;;;;;3.03;3.03;;;;;;;9.33;74.46;99622.84;5033632;28;20188;-70
2023/12/31 06:38:21;;;;;;;3.33;3.23;;;;;;;9.33;74.67;99622.84;5033654;28;20202;-70
2023/12/31 06:40:47;;;;;;;2.87;2.87;;;;;;;9.41;74.50;99625.47;5033538;28;20212;-70
2023/12/31 06:43:14;;;;;;;3.43;3.33;;;;;;;9.32;74.88;99620.31;5034027;28;20215;-69
2023/12/31 06:45:41;;;;;;;3.03;2.93;;;;;;;9.35;74.96;99619.97;5033144;28;20222;-69
2023/12/31 06:48:07;;;;;;;3.00;3.00;;;;;;;9.36;74.70;99618.97;5034021;28;20246;-69
2023/12/31 06:50:34;;;;;;;2.77;2.77;;;;;;;9.38;74.84;99614.28;5034141;28;20592;-70
2023/12/31 06:53:00;;;;;;;4.43;3.60;;;;;;;9.40;74.87;99615.81;5033382;28;20535;-69
2023/12/31 06:55:27;;;;;;;3.10;3.00;;;;;;;9.42;74.88;99603.09;5033344;28;20195;-69
2023/12/31 06:57:54;;;;;;;3.10;3.07;;;;;;;9.48;74.62;99601.59;5033334;28;20660;-69
2023/12/31 07:00:22;;;;;;;2.83;2.83;;;;;;;9.50;74.24;99600.44;5033256;28;20282;-70
2023/12/31 07:02:48;;;;;;;3.33;3.23;;;;;;;9.62;73.63;99588.38;5033551;28;20219;-70
2023/12/31 07:05:15;;;;;;;3.23;3.23;;;;;;;9.65;73.76;99584.53;5033529;28;20253;-69
2023/12/31 07:07:41;;;;;;;2.70;2.70;;;;;;;9.59;73.86;99578.03;5033441;28;20684;-69
2023/12/31 07:10:08;;;;;;;2.90;2.90;;;;;;;9.63;73.73;99576.69;5033146;28;20203;-70
2023/12/31 07:12:35;;;;;;;3.63;3.50;;;;;;;9.64;73.66;99574.84;5033186;28;20184;-69
2023/12/31 07:15:02;;;;;;;10.03;3.17;;;;;;;9.66;73.48;99572.84;5033391;28;20192;-69
2023/12/31 07:17:29;;;;;;;3.97;3.00;;;;;;;9.65;73.81;99571.19;5033311;28;20194;-69
2023/12/31 07:19:56;;;;;;;4.70;3.33;;;;;;;9.71;73.17;99567.00;5033010;28;20207;-70
2023/12/31 07:22:23;;;;;;;3.03;2.93;;;;;;;9.78;73.06;99566.13;5033336;28;20259;-69
2023/12/31 07:24:50;;;;;;;2.77;2.77;;;;;;;9.72;73.11;99572.13;5033559;28;20656;-69
2023/12/31 07:27:16;;;;;;;2.77;2.77;;;;;;;9.73;73.14;99559.63;5033339;28;20238;-69
2023/12/31 07:29:43;;;;;;;2.77;2.67;;;;;;;9.79;72.75;99558.94;5033165;28;20207;-69
2023/12/31 07:32:09;;;;;;;3.47;3.20;;;;;;;9.76;72.85;99560.09;5033283;28;20184;-69
2023/12/31 07:34:35;;;;;;;2.77;2.67;;;;;;;9.78;72.84;99554.59;5032971;28;20591;-69
2023/12/31 07:37:02;;;;;;;2.37;2.37;;;;;;;9.86;72.68;99547.38;5032953;28;20190;-69
2023/12/31 07:39:28;;;;;;;3.23;2.93;;;;;;;9.81;72.85;99552.41;5032835;28;20255;-70
2023/12/31 07:41:55;;;;;;;2.87;2.77;;;;;;;9.83;72.66;99544.25;5032870;28;20188;-69
2023/12/31 07:44:22;;;;;;;3.60;3.50;;;;;;;9.84;72.69;99544.06;5033024;28;20208;-69
2023/12/31 07:46:48;;;;;;;3.43;3.43;;;;;;;9.83;72.66;99550.41;5032842;28;20203;-69
2023/12/31 07:49:15;;;;;;;3.40;3.30;;;;;;;9.97;72.20;99536.28;5033009;28;20184;-69
2023/12/31 07:51:41;;;;;;;2.97;2.97;;;;;;;9.90;72.45;99537.19;5033078;28;20212;-69
2023/12/31 07:54:08;;;;;;;4.17;2.87;;;;;;;9.91;72.20;99525.50;5032790;28;20188;-69
2023/12/31 07:56:34;;;;;;;3.27;3.27;;;;;;;9.86;72.12;99541.22;5033094;28;20173;-69
2023/12/31 07:59:01;;;;;;;2.93;2.73;;;;;;;9.86;72.51;99531.38;5035787;28;20188;-69
2023/12/31 08:01:27;;;;;;;3.90;3.20;;;;;;;9.89;72.20;99517.66;5036550;28;20188;-69
2023/12/31 08:03:54;;;;;;;3.53;3.23;;;;;;;9.95;71.81;99510.78;5036410;28;20199;-69
2023/12/31 08:06:21;;;;;;;3.67;3.57;;;;;;;10.03;71.44;99532.94;5036448;28;20534;-69
2023/12/31 08:08:48;;;;;;;3.10;3.10;;;;;;;10.06;71.51;99527.22;5036667;28;20278;-69
2023/12/31 08:11:15;;;;;;;3.40;3.33;;;;;;;10.00;71.58;99519.94;5036328;28;20226;-69
2023/12/31 08:13:41;;;;;;;3.30;3.30;;;;;;;10.00;71.64;99521.78;5036344;28;20184;-69
2023/12/31 08:16:08;;;;;;;4.03;3.70;;;;;;;10.04;71.44;99510.56;5036548;28;20184;-69
2023/12/31 08:18:34;;;;;;;3.33;3.33;;;;;;;9.94;72.11;99515.28;5036268;28;20211;-69
2023/12/31 08:21:01;;;;;;;3.20;3.10;;;;;;;10.00;71.53;99509.25;5036139;28;20208;-69
2023/12/31 08:23:29;;;;;;;2.70;2.70;;;;;;;10.01;71.46;99513.56;5036053;28;20187;-69
2023/12/31 08:25:56;;;;;;;2.87;2.87;;;;;;;10.03;71.49;99514.25;5036110;28;20556;-69
2023/12/31 08:28:25;;;;;;;3.30;3.10;;;;;;;9.97;71.67;99514.94;5036284;28;20286;-69
2023/12/31 08:30:52;;;;;;;3.53;3.43;;;;;;;10.05;71.16;99508.72;5035977;28;20228;-69
2023/12/31 08:33:19;;;;;;;2.93;2.93;;;;;;;10.05;71.59;99506.91;5035994;28;20193;-69
2023/12/31 08:35:45;;;;;;;3.50;2.90;;;;;;;10.03;71.33;99508.91;5035936;28;20263;-69
2023/12/31 08:38:12;;;;;;;3.70;3.00;;;;;;;10.04;71.55;99505.22;5035909;28;20287;-69
2023/12/31 08:40:38;;;;;;;2.93;2.93;;;;;;;10.07;71.08;99502.19;5036665;28;20215;-69
2023/12/31 08:43:05;;;;;;;2.73;2.73;;;;;;;10.06;71.25;99505.03;5035776;28;20318;-69
2023/12/31 08:45:32;;;;;;;3.23;3.23;;;;;;;10.10;71.28;99509.84;5035675;28;20200;-69
2023/12/31 08:47:59;;;;;;;2.73;2.63;;;;;;;10.11;71.24;99513.34;5035889;28;20222;-69
2023/12/31 08:50:26;;;;;;;4.47;3.37;;;;;;;10.13;71.05;99502.50;5035560;28;20250;-69
2023/12/31 08:52:52;;;;;;;3.43;3.33;;;;;;;10.13;70.90;99486.47;5035580;28;20196;-69
2023/12/31 08:55:19;;;;;;;3.27;3.27;;;;;;;10.13;70.82;99492.66;5036094;28;20204;-69
2023/12/31 08:57:47;;;;;;;3.70;3.60;;;;;;;10.23;70.29;99484.41;5035473;28;20262;-69
2023/12/31 09:00:17;;;;;;;3.87;3.57;;;;;;;10.20;70.65;99487.44;5035391;28;20216;-69
2023/12/31 09:02:43;;;;;;;3.47;3.47;;;;;;;10.23;70.54;99495.06;5035695;28;20195;-69
2023/12/31 09:05:10;;;;;;;3.27;3.17;;;;;;;10.21;70.65;99487.25;5035281;28;20210;-69
2023/12/31 09:07:39;;;;;;;3.60;3.60;;;;;;;10.25;70.55;99479.72;5035639;28;20237;-69
2023/12/31 09:10:07;;;;;;;2.80;2.73;;;;;;;10.30;70.25;99485.34;5034988;28;20298;-69
2023/12/31 09:12:33;;;;;;;3.33;3.30;;;;;;;10.27;70.45;99505.22;5035226;28;20215;-69
2023/12/31 09:15:00;;;;;;;3.43;3.33;;;;;;;10.27;70.23;99494.53;5035212;28;20188;-69
2023/12/31 09:17:27;;;;;;;3.10;3.10;;;;;;;10.29;70.32;99494.38;5035075;28;20270;-69
2023/12/31 09:19:54;;;;;;;3.47;3.47;;;;;;;10.32;70.05;99483.31;5035014;28;20224;-70
2023/12/31 09:22:21;;;;;;;3.10;3.10;;;;;;;10.39;69.91;99481.59;5034984;28;20192;-69
2023/12/31 09:24:50;;;;;;;3.70;3.17;;;;;;;10.37;70.27;99473.75;5034872;28;20261;-69
2023/12/31 09:27:18;;;;;;;3.30;3.20;;;;;;;10.41;70.81;99471.56;5034997;28;20188;-69
2023/12/31 09:29:45;;;;;;;7.80;3.57;;;;;;;10.47;70.55;99465.50;5034851;28;20223;-70
2023/12/31 09:32:12;;;;;;;3.40;3.40;;;;;;;10.47;70.61;99471.69;5034888;28;20195;-70
2023/12/31 09:34:39;;;;;;;3.57;3.47;;;;;;;10.48;70.28;99475.19;5034779;28;20207;-70
2023/12/31 09:37:05;;;;;;;3.50;3.50;;;;;;;10.48;70.24;99459.16;5035016;28;20214;-69
2023/12/31 09:39:32;;;;;;;3.80;3.80;;;;;;;10.47;70.50;99468.16;5034640;28;20627;-70
2023/12/31 09:42:05;;;;;;;3.40;3.30;;;;;;;10.41;70.57;99450.19;5034675;28;20195;-69
2023/12/31 09:44:32;;;;;;;5.43;3.80;;;;;;;10.45;70.30;99462.16;5034883;28;20203;-69
2023/12/31 09:47:06;;;;;;;3.57;3.57;;;;;;;10.42;70.34;99450.00;5034889;28;20192;-69
2023/12/31 09:49:39;;;;;;;3.47;3.47;;;;;;;10.48;70.36;99448.47;5034968;28;20293;-70
2023/12/31 09:52:08;;;;;;;3.73;3.73;;;;;;;10.51;70.16;99448.09;5035068;28;20198;-69
2023/12/31 09:54:40;;;;;;;4.07;3.93;;;;;;;10.59;70.10;99433.81;5034953;28;20184;-69
2023/12/31 09:57:07;;;;;;;3.83;3.83;;;;;;;10.56;69.79;99435.03;5034696;28;20179;-69
2023/12/31 09:59:39;;;;;;;3.77;3.67;;;;;;;10.57;70.13;99431.31;5034833;28;20245;-69
2023/12/31 10:02:07;;;;;;;3.77;3.77;;;;;;;10.60;70.52;99424.78;5034302;28;20214;-69
2023/12/31 10:04:33;;;;;;;4.20;3.87;;;;;;;10.68;69.37;99430.03;5034718;28;20200;-69
2023/12/31 10:07:02;;;;;;;3.57;3.47;;;;;;;10.69;69.70;99434.38;5034192;28;20192;-69
2023/12/31 10:09:31;;;;;;;3.60;3.50;;;;;;;10.78;69.33;99423.38;5034269;28;20204;-69
2023/12/31 10:12:00;;;;;;;3.37;3.10;;;;;;;10.88;69.73;99436.50;5034473;28;20227;-69
2023/12/31 10:14:27;;;;;;;3.53;3.43;;;;;;;11.00;68.72;99437.66;5034078;28;20528;-69
2023/12/31 10:16:54;;;;;;;3.87;3.77;;;;;;;11.06;68.46;99439.63;5033865;28;20184;-69
2023/12/31 10:19:20;;;;;;;3.30;3.30;;;;;;;11.13;68.33;99427.16;5034236;28;20571;-70
2023/12/31 10:21:47;;;;;;;4.00;4.00;;;;;;;11.16;67.91;99436.66;5033642;28;20234;-69
2023/12/31 10:24:13;;;;;;;4.07;3.97;;;;;;;11.12;68.94;99424.69;5033866;28;20571;-69
2023/12/31 10:26:40;;;;;;;4.17;4.07;;;;;;;11.06;68.32;99444.13;5033834;28;20188;-69
2023/12/31 10:29:06;;;;;;;4.67;4.33;;;;;;;10.94;69.55;99436.59;5033696;28;20195;-70
2023/12/31 10:31:33;;;;;;;3.90;3.90;;;;;;;10.94;69.51;99439.25;5033701;28;20180;-69
2023/12/31 10:34:16;;;;;;;3.93;3.67;;;;;;;10.94;70.52;99443.78;5033708;28;20188;-69
2023/12/31 10:36:45;;;;;;;4.23;4.00;;;;;;;10.88;70.30;99431.13;5033645;28;20263;-69
2023/12/31 10:39:29;;;;;;;4.30;4.20;;;;;;;10.94;70.35;99430.41;5033771;28;20567;-70
2023/12/31 10:42:00;;;;;;;3.60;3.60;;;;;;;10.91;69.37;99436.94;5033590;28;20184;-69
2023/12/31 10:44:27;;;;;;;3.73;3.63;;;;;;;10.90;69.17;99421.94;5033705;28;20212;-69
2023/12/31 10:47:00;;;;;;;3.00;3.00;;;;;;;10.90;68.89;99451.34;5033798;28;20187;-69
2023/12/31 10:49:30;;;;;;;3.60;3.60;;;;;;;10.89;68.32;99443.50;5033733;28;20637;-69
2023/12/31 10:52:00;;;;;;;4.47;4.07;;;;;;;10.92;68.47;99429.75;5033727;28;20180;-69
2023/12/31 10:54:41;;;;;;;3.43;3.43;;;;;;;10.91;68.18;99444.13;5033737;28;20180;-69
2023/12/31 10:57:09;;;;;;;3.33;3.33;;;;;;;10.87;70.73;99470.41;5033727;28;20179;-69
2023/12/31 10:59:39;;;;;;;4.53;4.27;;;;;;;10.58;73.62;99461.53;5033438;28;20580;-69
2023/12/31 11:02:14;;;;;;;3.40;3.40;;;;;;;10.39;75.76;99447.72;5033599;28;20176;-69
2023/12/31 11:04:43;;;;;;;4.03;3.83;;;;;;;10.21;77.70;99441.88;5033498;28;20206;-69
2023/12/31 11:07:13;;;;;;;3.87;3.77;;;;;;;10.20;78.23;99434.03;5033288;28;20556;-69
2023/12/31 11:09:42;;;;;;;3.50;3.40;;;;;;;10.05;78.77;99432.13;5033739;28;20215;-69
2023/12/31 11:12:09;;;;;;;3.20;3.20;;;;;;;10.03;79.14;99428.78;5033768;28;20184;-69
2023/12/31 11:14:39;;;;;;;2.20;2.20;;;;;;;10.01;76.58;99433.47;5033473;28;20180;-69
2023/12/31 11:17:22;;;;;;;3.23;3.00;;;;;;;10.12;73.53;99420.72;5033493;28;20207;-69
2023/12/31 11:20:18;;;;;;;1.50;1.50;;;;;;;10.20;73.04;99429.50;5033044;28;20214;-69
2023/12/31 11:23:11;;;;;;;1.57;1.57;;;;;;;10.25;70.74;99432.47;5033729;28;20203;-69
2023/12/31 11:25:38;;;;;;;1.30;1.30;;;;;;;10.24;71.33;99441.50;5033024;28;20337;-69
2023/12/31 11:28:06;;;;;;;1.60;1.60;;;;;;;10.31;70.29;99446.97;5033047;28;20196;-69
2023/12/31 11:30:52;;;;;;;2.17;2.07;;;;;;;10.40;70.61;99446.69;5032984;28;20218;-69
2023/12/31 11:33:21;;;;;;;1.27;1.27;;;;;;;10.39;69.95;99434.34;5036503;28;20538;-69
2023/12/31 11:35:50;;;;;;;1.23;1.23;;;;;;;10.34;69.95;99438.56;5037065;28;20274;-69
2023/12/31 11:38:18;;;;;;;1.50;1.50;;;;;;;10.36;71.56;99450.72;5037010;28;20187;-69